GMFF/FEZ METAR and TAF weather

Enter ICAO airport designator
Station Type Date Time Source
GMFF METAR 2020/07/07 00:30 UTC NOAA

GMFF 070030Z 14008KT CAVOK 27/03 Q1017 NOSIG


Station Type Date Time Source
GMFF Decoded METAR 2020/07/07 00:30 UTC NOAA

Fes-Sais, Morocco (GMFF) 33-56N 004-59W 579M
Jul 06, 2020 - 08:30 PM EDT / 2020.07.07 0030 UTC
Wind: from the SE (140 degrees) at 9 MPH (8 KT):0
Visibility: greater than 7 mile(s):0
Temperature: 80 F (27 C)
Dew Point: 37 F (3 C)
Relative Humidity: 21%
Pressure (altimeter): 30.03 in. Hg (1017 hPa)
ob: GMFF 070030Z 14008KT CAVOK 27/03 Q1017 NOSIG
cycle: 0

Station Type Date Time Source
GMFF TAF 2020/07/06 18:21 UTC NOAA

TAF TAF GMFF 061700Z 0618/0724 32014KT CAVOK
BECMG 0620/0622 20008KT
BECMG 0710/0712 31012KT

Example: see airport list